Time;durP1;ratioP1;P1;durP2;ratioP2;P2;SDS_P1;SDS_P2;PMS_P1;PMS_P2;Temp;Humidity;BMP_temperature;BMP_pressure;BME280_temperature;BME280_humidity;BME280_pressure;Samples;Min_cycle;Max_cycle;Signal;HPM_P1;HPM_P2
2021/10/14 00:00:25;;;;;;;13.25;8.00;;;;;;;8.96;71.58;99228.13;5009047;28;20728;-56
2021/10/14 00:02:51;;;;;;;12.18;7.45;;;;;;;8.90;71.98;99232.00;5024208;28;20037;-57
2021/10/14 00:05:16;;;;;;;14.60;7.85;;;;;;;8.77;72.79;99233.91;5016329;28;20055;-57
2021/10/14 00:07:42;;;;;;;12.55;7.78;;;;;;;8.63;72.95;99220.25;5020597;28;20084;-57
2021/10/14 00:10:08;;;;;;;12.65;7.82;;;;;;;8.76;72.83;99240.03;5015551;28;20029;-57
2021/10/14 00:12:34;;;;;;;11.82;7.28;;;;;;;8.61;73.27;99245.44;5019648;28;20442;-57
2021/10/14 00:14:59;;;;;;;13.50;7.60;;;;;;;8.67;72.80;99246.75;5020661;28;20029;-56
2021/10/14 00:17:25;;;;;;;12.65;7.68;;;;;;;8.51;73.08;99204.81;5028096;28;20029;-56
2021/10/14 00:19:50;;;;;;;12.00;7.63;;;;;;;8.56;72.80;99202.66;5022047;28;20056;-57
2021/10/14 00:22:15;;;;;;;13.90;7.85;;;;;;;8.76;72.63;99247.81;5020967;28;20036;-56
2021/10/14 00:24:41;;;;;;;11.73;7.50;;;;;;;8.72;73.19;99249.81;5029210;28;20040;-56
2021/10/14 00:27:07;;;;;;;14.95;7.97;;;;;;;8.72;73.08;99247.22;5002503;28;20148;-58
2021/10/14 00:29:32;;;;;;;13.40;7.85;;;;;;;8.74;72.44;99249.69;5020822;28;20469;-57
2021/10/14 00:31:57;;;;;;;13.82;7.45;;;;;;;8.70;72.83;99251.69;5022681;28;20482;-56
2021/10/14 00:34:23;;;;;;;10.48;6.30;;;;;;;8.63;71.46;99256.53;5028053;28;20033;-56
2021/10/14 00:36:48;;;;;;;10.70;5.60;;;;;;;8.31;71.97;99204.50;5025433;28;20040;-56
2021/10/14 00:39:13;;;;;;;8.23;4.97;;;;;;;8.54;72.36;99243.44;5024942;28;20060;-56
2021/10/14 00:41:39;;;;;;;9.45;4.88;;;;;;;8.52;72.06;99240.94;5022959;28;20100;-57
2021/10/14 00:44:05;;;;;;;10.75;5.70;;;;;;;8.15;72.09;99197.06;5027154;28;20052;-57
2021/10/14 00:46:30;;;;;;;12.93;7.03;;;;;;;8.26;73.12;99255.84;5018309;28;20099;-56
2021/10/14 00:48:55;;;;;;;10.70;6.13;;;;;;;8.24;72.44;99231.81;5019059;28;20107;-56
2021/10/14 00:51:21;;;;;;;8.73;5.20;;;;;;;8.25;72.02;99215.31;5026762;28;20033;-56
2021/10/14 00:53:46;;;;;;;8.93;5.15;;;;;;;8.43;71.99;99257.19;5006334;28;20040;-57
2021/10/14 00:56:13;;;;;;;8.70;4.97;;;;;;;8.28;72.04;99218.50;5026096;28;20779;-57
2021/10/14 00:58:39;;;;;;;10.50;5.20;;;;;;;8.24;71.03;99204.13;5016507;28;20036;-56
2021/10/14 01:01:05;;;;;;;8.93;4.93;;;;;;;8.40;71.66;99255.66;5016669;28;20025;-57
2021/10/14 01:03:31;;;;;;;9.90;5.03;;;;;;;8.27;72.01;99258.31;5021286;28;20033;-57
2021/10/14 01:05:57;;;;;;;10.23;6.07;;;;;;;8.13;72.97;99242.16;5029478;28;20519;-56
2021/10/14 01:08:23;;;;;;;8.77;4.88;;;;;;;8.24;72.53;99263.72;5026617;28;20190;-56
2021/10/14 01:10:49;;;;;;;9.73;5.38;;;;;;;8.30;72.11;99254.66;5023383;28;20164;-56
2021/10/14 01:13:15;;;;;;;10.27;5.40;;;;;;;8.31;72.06;99250.34;5015361;28;20495;-57
2021/10/14 01:15:41;;;;;;;8.57;5.47;;;;;;;8.02;72.33;99211.88;5021395;28;20044;-56
2021/10/14 01:18:06;;;;;;;10.05;5.40;;;;;;;7.85;72.43;99208.75;5008037;28;20037;-57
2021/10/14 01:20:32;;;;;;;9.13;5.38;;;;;;;7.84;72.89;99233.00;5021490;28;20040;-58
2021/10/14 01:22:57;;;;;;;9.35;4.53;;;;;;;7.95;72.50;99254.69;5026714;28;20097;-57
2021/10/14 01:25:24;;;;;;;8.73;4.78;;;;;;;8.02;73.85;99269.66;5024485;28;20026;-57
2021/10/14 01:27:50;;;;;;;9.23;5.45;;;;;;;7.90;73.38;99270.56;5031025;28;20036;-56
2021/10/14 01:30:16;;;;;;;9.77;5.75;;;;;;;8.04;72.93;99272.16;5015393;28;20026;-56
2021/10/14 01:32:43;;;;;;;9.23;5.63;;;;;;;8.07;72.79;99264.97;5021015;28;20538;-56
2021/10/14 01:35:09;;;;;;;10.43;5.47;;;;;;;7.89;73.12;99251.63;5019200;28;20341;-56
2021/10/14 01:37:34;;;;;;;8.93;5.47;;;;;;;7.79;73.33;99227.31;5025582;28;20468;-56
2021/10/14 01:40:00;;;;;;;10.25;5.68;;;;;;;8.03;73.67;99273.06;5025813;28;20059;-56
2021/10/14 01:42:25;;;;;;;10.55;5.80;;;;;;;7.50;73.89;99182.84;5019876;28;20036;-57
2021/10/14 01:44:51;;;;;;;10.38;5.50;;;;;;;8.01;73.72;99251.66;5034542;28;20715;-56
2021/10/14 01:47:16;;;;;;;8.45;4.70;;;;;;;8.09;73.60;99283.00;5024612;28;20040;-57
2021/10/14 01:49:42;;;;;;;10.20;4.93;;;;;;;8.04;74.35;99278.16;5018498;28;20465;-57
2021/10/14 01:52:07;;;;;;;8.43;4.80;;;;;;;8.00;74.58;99273.31;5015197;28;20038;-58
2021/10/14 01:54:33;;;;;;;8.88;4.95;;;;;;;7.57;72.78;99211.69;5017878;28;20037;-56
2021/10/14 01:56:58;;;;;;;8.85;4.90;;;;;;;8.05;74.25;99277.22;5027348;28;20032;-56
2021/10/14 01:59:23;;;;;;;9.63;5.13;;;;;;;7.84;73.96;99232.16;5024347;28;20469;-57
2021/10/14 02:01:49;;;;;;;7.95;3.88;;;;;;;8.19;73.29;99275.38;5025293;28;20036;-57
2021/10/14 02:04:14;;;;;;;7.70;4.50;;;;;;;8.13;72.95;99284.44;5022952;28;20026;-57
2021/10/14 02:06:40;;;;;;;10.88;5.03;;;;;;;8.02;72.42;99280.03;5024887;28;20025;-57
2021/10/14 02:09:05;;;;;;;8.98;4.53;;;;;;;7.79;74.00;99221.31;5028591;28;20043;-57
2021/10/14 02:11:31;;;;;;;8.82;4.30;;;;;;;8.18;74.16;99284.09;5033304;28;20049;-56
2021/10/14 02:13:57;;;;;;;8.38;4.10;;;;;;;8.17;73.98;99279.84;5013188;28;20029;-56
2021/10/14 02:16:22;;;;;;;8.65;4.22;;;;;;;7.91;74.52;99243.72;5021143;28;20026;-56
2021/10/14 02:18:47;;;;;;;9.63;3.83;;;;;;;7.79;73.37;99240.25;5027882;28;20040;-56
2021/10/14 02:21:15;;;;;;;8.10;3.75;;;;;;;7.91;73.76;99237.75;5015311;28;20041;-57
2021/10/14 02:23:41;;;;;;;7.63;3.80;;;;;;;8.13;72.96;99284.44;5021058;28;20064;-57
2021/10/14 02:26:06;;;;;;;8.55;3.75;;;;;;;8.12;73.00;99275.00;5015420;28;20061;-56
2021/10/14 02:28:31;;;;;;;7.30;3.53;;;;;;;8.17;73.49;99267.72;5012299;28;20084;-57
2021/10/14 02:30:57;;;;;;;8.05;3.00;;;;;;;7.97;73.91;99213.97;5018520;28;20113;-57
2021/10/14 02:33:22;;;;;;;6.38;2.97;;;;;;;8.32;72.69;99263.16;5019627;28;20104;-57
2021/10/14 02:35:47;;;;;;;7.90;3.17;;;;;;;8.39;73.00;99261.75;5026028;28;20044;-57
2021/10/14 02:38:13;;;;;;;5.53;2.53;;;;;;;8.28;72.05;99259.97;5020125;28;20380;-56
2021/10/14 02:40:38;;;;;;;5.60;2.72;;;;;;;8.35;73.42;99262.13;5016599;28;20025;-57
2021/10/14 02:43:04;;;;;;;6.82;2.60;;;;;;;8.40;72.88;99258.22;5018149;28;20049;-57
2021/10/14 02:45:29;;;;;;;6.22;2.90;;;;;;;8.41;73.17;99269.41;5018965;28;20037;-57
2021/10/14 02:47:54;;;;;;;7.50;2.65;;;;;;;8.08;72.88;99207.03;5015632;28;20556;-56
2021/10/14 02:50:20;;;;;;;6.38;2.83;;;;;;;8.46;72.97;99255.19;5019468;28;20566;-57
2021/10/14 02:52:45;;;;;;;6.00;2.83;;;;;;;8.06;73.23;99211.50;5017256;28;20045;-56
2021/10/14 02:55:11;;;;;;;6.07;2.90;;;;;;;8.34;72.85;99265.63;5030629;28;20030;-57
2021/10/14 02:57:36;;;;;;;5.70;2.40;;;;;;;8.34;72.77;99269.06;5021917;28;20545;-56
2021/10/14 03:00:05;;;;;;;4.75;2.30;;;;;;;8.35;73.23;99272.47;5026573;28;20033;-56
2021/10/14 03:02:30;;;;;;;5.22;2.33;;;;;;;8.20;72.97;99264.91;5027211;28;20496;-57
2021/10/14 03:04:56;;;;;;;5.18;2.10;;;;;;;8.22;73.69;99282.94;5022740;28;20037;-56
2021/10/14 03:07:21;;;;;;;5.07;2.30;;;;;;;8.06;73.67;99247.78;5011045;28;20026;-56
2021/10/14 03:09:46;;;;;;;6.68;2.50;;;;;;;8.22;73.01;99281.16;5017172;28;20116;-56
2021/10/14 03:12:12;;;;;;;5.68;2.65;;;;;;;8.34;73.08;99284.63;5030057;28;20021;-56
2021/10/14 03:14:37;;;;;;;5.25;2.38;;;;;;;8.38;72.61;99285.22;5029019;28;20033;-57
2021/10/14 03:17:03;;;;;;;5.95;2.40;;;;;;;8.35;71.85;99281.06;5016883;28;20029;-57
2021/10/14 03:19:28;;;;;;;5.50;2.60;;;;;;;8.40;72.39;99281.56;5016225;28;20504;-57
2021/10/14 03:21:53;;;;;;;4.35;1.73;;;;;;;8.30;70.60;99284.94;5020321;28;20036;-57
2021/10/14 03:24:19;;;;;;;4.13;1.55;;;;;;;8.17;67.75;99254.75;5034042;28;20506;-57
2021/10/14 03:26:44;;;;;;;3.60;1.33;;;;;;;8.45;67.29;99294.19;5021241;28;20028;-56
2021/10/14 03:29:10;;;;;;;4.90;1.10;;;;;;;8.44;66.28;99282.19;5023228;28;20021;-56
2021/10/14 03:31:35;;;;;;;4.85;1.30;;;;;;;8.45;64.86;99273.47;5016675;28;20468;-56
2021/10/14 03:34:00;;;;;;;3.75;1.10;;;;;;;8.52;65.09;99286.78;5030556;28;20595;-56
2021/10/14 03:36:26;;;;;;;3.42;1.10;;;;;;;8.28;64.46;99243.59;5023715;28;20037;-57
2021/10/14 03:38:51;;;;;;;4.65;1.25;;;;;;;8.39;63.92;99255.75;5016297;28;20606;-56
2021/10/14 03:41:16;;;;;;;4.07;1.13;;;;;;;8.54;63.60;99297.88;5032369;28;20037;-58
2021/10/14 03:43:42;;;;;;;4.28;1.13;;;;;;;8.59;63.90;99306.13;5036090;28;20443;-56
2021/10/14 03:46:07;;;;;;;3.80;1.20;;;;;;;8.36;63.20;99272.38;5025463;28;20071;-57
2021/10/14 03:48:33;;;;;;;3.33;1.10;;;;;;;8.54;62.65;99297.88;5032032;28;20037;-56
2021/10/14 03:50:58;;;;;;;3.35;1.10;;;;;;;8.63;61.70;99308.41;5035775;28;20506;-57
2021/10/14 03:53:24;;;;;;;4.05;1.10;;;;;;;8.58;61.96;99284.56;5029963;28;20034;-56
2021/10/14 03:55:49;;;;;;;3.40;1.27;;;;;;;8.54;61.65;99290.94;5029668;28;20033;-56
2021/10/14 03:58:14;;;;;;;3.30;1.30;;;;;;;8.61;60.86;99296.47;5032962;28;20029;-56
2021/10/14 04:00:40;;;;;;;4.97;1.52;;;;;;;8.45;61.11;99292.44;5013626;28;20025;-58
2021/10/14 04:03:05;;;;;;;3.65;1.00;;;;;;;8.19;61.78;99259.81;5021902;28;20063;-56
2021/10/14 04:05:30;;;;;;;3.05;1.05;;;;;;;8.54;60.75;99305.66;5040573;28;20029;-57
2021/10/14 04:07:56;;;;;;;3.65;1.20;;;;;;;8.53;60.46;99302.22;5015520;28;20112;-57
2021/10/14 04:10:21;;;;;;;3.00;1.10;;;;;;;8.47;61.13;99307.88;5024605;28;20056;-56
2021/10/14 04:12:47;;;;;;;3.78;1.30;;;;;;;8.14;61.76;99255.00;5024558;28;20067;-57
2021/10/14 04:15:13;;;;;;;4.30;1.30;;;;;;;8.45;62.65;99302.81;5014602;28;20509;-56
2021/10/14 04:17:38;;;;;;;4.57;1.30;;;;;;;8.34;62.98;99310.53;5027383;28;20044;-56
2021/10/14 04:20:04;;;;;;;3.30;1.13;;;;;;;8.46;62.57;99314.00;5027002;28;20018;-56
2021/10/14 04:22:30;;;;;;;3.67;1.35;;;;;;;8.50;61.71;99324.97;5019381;28;20041;-56
2021/10/14 04:24:55;;;;;;;3.65;1.23;;;;;;;8.50;61.59;99333.56;5023775;28;20021;-57
2021/10/14 04:27:21;;;;;;;3.97;1.20;;;;;;;8.45;61.78;99331.31;5014140;28;20118;-56
2021/10/14 04:29:46;;;;;;;3.92;1.17;;;;;;;8.38;63.39;99337.88;5020177;28;20025;-57
2021/10/14 04:32:12;;;;;;;3.25;1.17;;;;;;;8.26;63.13;99331.81;5021679;28;20556;-56
2021/10/14 04:34:38;;;;;;;3.25;1.10;;;;;;;8.35;63.61;99326.91;5021125;28;20029;-56
2021/10/14 04:37:07;;;;;;;3.67;1.27;;;;;;;8.24;63.34;99305.19;5026599;28;20049;-56
2021/10/14 04:39:37;;;;;;;3.80;1.20;;;;;;;8.22;63.40;99298.47;5025812;28;20082;-57
2021/10/14 04:42:06;;;;;;;3.15;1.00;;;;;;;8.25;63.39;99293.03;5022718;28;20028;-57
2021/10/14 04:44:32;;;;;;;3.40;1.20;;;;;;;8.31;63.28;99312.53;5022683;28;20132;-57
2021/10/14 04:46:57;;;;;;;3.20;1.08;;;;;;;8.33;63.89;99321.00;5021457;28;20028;-56
2021/10/14 04:49:22;;;;;;;3.50;1.10;;;;;;;8.26;63.99;99307.66;5027393;28;20029;-58
2021/10/14 04:51:48;;;;;;;3.13;1.10;;;;;;;8.24;64.07;99306.94;5022826;28;20136;-57
2021/10/14 04:54:14;;;;;;;3.50;1.02;;;;;;;8.01;63.49;99273.22;5017699;28;20554;-57
2021/10/14 04:56:39;;;;;;;3.55;1.20;;;;;;;8.30;64.32;99321.22;5023307;28;20029;-56
2021/10/14 04:59:05;;;;;;;3.95;1.00;;;;;;;8.11;63.68;99282.91;5018851;28;20675;-56
2021/10/14 05:01:30;;;;;;;3.45;1.08;;;;;;;8.05;62.46;99261.69;5024911;28;20107;-55
2021/10/14 05:03:56;;;;;;;3.70;1.35;;;;;;;8.05;62.69;99277.22;5021913;28;20029;-57
2021/10/14 05:06:21;;;;;;;4.38;1.50;;;;;;;8.13;62.70;99283.59;5021548;28;20037;-55
2021/10/14 05:08:47;;;;;;;4.05;1.25;;;;;;;7.62;62.63;99212.19;5017795;28;20083;-56
2021/10/14 05:11:13;;;;;;;4.75;1.85;;;;;;;8.31;62.85;99315.13;5017131;28;21172;-57
2021/10/14 05:13:39;;;;;;;4.10;1.60;;;;;;;8.01;63.15;99275.81;5026043;28;20056;-57
2021/10/14 05:16:04;;;;;;;7.65;4.07;;;;;;;8.26;63.61;99313.66;5021567;28;20029;-55
2021/10/14 05:18:30;;;;;;;4.93;1.92;;;;;;;8.22;63.37;99319.19;5022831;28;20060;-56
2021/10/14 05:20:55;;;;;;;3.70;1.08;;;;;;;8.20;62.66;99316.72;5017615;28;20047;-58
2021/10/14 05:23:21;;;;;;;3.80;1.30;;;;;;;8.22;62.77;99308.84;5029443;28;20037;-56
2021/10/14 05:25:46;;;;;;;6.05;1.40;;;;;;;8.24;63.34;99319.91;5019130;28;20041;-58
2021/10/14 05:28:12;;;;;;;3.58;1.30;;;;;;;8.27;63.04;99325.69;5012057;28;20030;-56
2021/10/14 05:30:37;;;;;;;4.20;1.48;;;;;;;8.04;62.04;99279.91;5013973;28;20061;-57
2021/10/14 05:33:02;;;;;;;3.70;1.17;;;;;;;7.85;62.40;99263.13;5016200;28;20470;-56
2021/10/14 05:35:28;;;;;;;3.72;1.40;;;;;;;8.21;62.71;99326.16;5014421;28;20025;-58
2021/10/14 05:37:53;;;;;;;3.05;1.10;;;;;;;7.92;62.23;99271.25;5019122;28;20044;-55
2021/10/14 05:40:19;;;;;;;4.15;1.35;;;;;;;8.18;62.95;99320.38;5014827;28;20033;-57
2021/10/14 05:42:44;;;;;;;3.75;1.33;;;;;;;8.18;63.13;99326.38;5012894;28;20083;-56
2021/10/14 05:45:10;;;;;;;4.70;1.25;;;;;;;7.85;63.46;99283.03;5018978;28;20516;-56
2021/10/14 05:47:36;;;;;;;3.88;1.38;;;;;;;8.20;63.69;99328.84;5009623;28;20033;-57
2021/10/14 05:50:03;;;;;;;4.55;1.45;;;;;;;7.94;63.66;99295.31;5001450;28;20482;-57
2021/10/14 05:52:29;;;;;;;3.70;1.27;;;;;;;8.09;64.33;99340.00;5012232;28;20046;-57
2021/10/14 05:54:55;;;;;;;4.15;1.60;;;;;;;8.11;64.26;99340.69;5010650;28;20029;-58
2021/10/14 05:57:21;;;;;;;3.85;1.45;;;;;;;8.00;65.10;99332.88;5022817;28;20025;-55
2021/10/14 05:59:46;;;;;;;3.78;1.35;;;;;;;7.99;65.06;99321.69;5011962;28;20037;-57
2021/10/14 06:02:12;;;;;;;3.85;1.45;;;;;;;8.08;64.01;99333.13;5014537;28;20789;-57
2021/10/14 06:04:37;;;;;;;4.00;1.33;;;;;;;7.92;63.92;99330.81;5011985;28;20671;-56
2021/10/14 06:07:03;;;;;;;3.47;1.30;;;;;;;7.99;64.74;99339.81;5016527;28;20033;-55
2021/10/14 06:09:28;;;;;;;3.47;1.30;;;;;;;8.19;64.15;99351.31;5017415;28;20116;-57
2021/10/14 06:11:53;;;;;;;3.15;1.15;;;;;;;7.87;63.82;99323.41;5019295;28;20021;-56
2021/10/14 06:14:19;;;;;;;3.85;1.50;;;;;;;7.48;64.76;99262.34;5014030;28;20033;-56
2021/10/14 06:16:44;;;;;;;4.47;1.50;;;;;;;8.07;64.92;99355.63;5011789;28;20029;-55
2021/10/14 06:19:10;;;;;;;4.68;1.20;;;;;;;8.03;64.07;99361.97;5015596;28;20025;-56
2021/10/14 06:21:35;;;;;;;4.28;1.25;;;;;;;7.96;64.04;99344.38;5020886;28;20029;-57
2021/10/14 06:24:00;;;;;;;3.45;1.30;;;;;;;8.02;63.75;99356.91;5023732;28;20046;-56
2021/10/14 06:26:26;;;;;;;4.15;1.30;;;;;;;8.04;64.26;99355.84;5014700;28;20142;-56
2021/10/14 06:28:51;;;;;;;4.50;1.42;;;;;;;8.08;63.38;99359.03;5021232;28;20094;-56
2021/10/14 06:31:17;;;;;;;4.95;1.40;;;;;;;8.06;63.74;99361.75;5011180;28;20030;-56
2021/10/14 06:33:42;;;;;;;3.58;1.20;;;;;;;7.76;64.01;99318.16;5010124;28;20811;-56
2021/10/14 06:36:08;;;;;;;3.20;1.35;;;;;;;8.20;63.26;99367.72;5025422;28;20043;-55
2021/10/14 06:38:33;;;;;;;3.60;1.20;;;;;;;7.84;63.49;99315.03;5020695;28;20038;-56
2021/10/14 06:40:59;;;;;;;4.05;1.48;;;;;;;8.01;63.65;99348.31;5024697;28;20535;-56
2021/10/14 06:43:24;;;;;;;6.13;2.60;;;;;;;8.05;63.78;99362.69;5026660;28;20656;-56
2021/10/14 06:45:50;;;;;;;4.45;1.50;;;;;;;8.12;63.81;99364.84;5018270;28;20449;-57
2021/10/14 06:48:15;;;;;;;5.55;1.80;;;;;;;8.12;64.50;99368.25;5027190;28;20499;-60
2021/10/14 06:50:41;;;;;;;4.15;1.50;;;;;;;7.78;64.52;99339.59;5041062;28;20044;-60
2021/10/14 06:53:10;;;;;;;4.47;1.55;;;;;;;7.80;64.13;99334.31;5006696;28;20379;-60
2021/10/14 06:55:36;;;;;;;3.38;1.25;;;;;;;8.01;64.31;99373.38;5021250;28;20157;-60
2021/10/14 06:58:02;;;;;;;4.40;1.30;;;;;;;7.94;64.15;99354.03;5028874;28;20040;-60
2021/10/14 07:00:27;;;;;;;5.35;1.33;;;;;;;7.85;64.23;99342.59;5018968;28;20476;-60
2021/10/14 07:02:52;;;;;;;4.40;1.70;;;;;;;8.01;64.81;99374.22;5028769;28;20108;-59
2021/10/14 07:05:18;;;;;;;4.50;1.80;;;;;;;8.13;64.77;99382.03;5019997;28;20438;-60
2021/10/14 07:07:43;;;;;;;3.05;1.27;;;;;;;8.06;64.40;99379.06;5011768;28;20057;-60
2021/10/14 07:10:09;;;;;;;3.78;1.30;;;;;;;7.99;64.41;99364.88;5022584;28;20511;-60
2021/10/14 07:12:37;;;;;;;4.85;1.40;;;;;;;7.99;64.47;99364.88;5021004;28;20389;-61
2021/10/14 07:15:03;;;;;;;3.47;1.25;;;;;;;7.75;64.51;99326.03;5028430;28;20029;-60
2021/10/14 07:17:29;;;;;;;6.60;2.60;;;;;;;8.05;64.56;99385.19;5007061;28;20052;-59
2021/10/14 07:19:54;;;;;;;3.80;1.38;;;;;;;8.07;64.67;99383.31;5027501;28;20434;-60
2021/10/14 07:22:20;;;;;;;3.42;1.23;;;;;;;7.73;64.43;99330.50;5020173;28;20344;-60
2021/10/14 07:24:45;;;;;;;3.92;1.55;;;;;;;8.04;64.40;99379.16;5029485;28;20025;-60
2021/10/14 07:27:11;;;;;;;4.07;1.50;;;;;;;8.05;64.55;99386.00;5020354;28;20029;-60
2021/10/14 07:29:36;;;;;;;4.03;1.50;;;;;;;7.85;64.81;99337.41;5019184;28;20092;-60
2021/10/14 07:32:05;;;;;;;3.30;1.20;;;;;;;8.16;64.79;99386.97;5024963;28;20116;-59
2021/10/14 07:34:30;;;;;;;4.82;1.50;;;;;;;8.11;65.10;99386.50;5006334;28;20049;-60
2021/10/14 07:36:56;;;;;;;3.95;1.35;;;;;;;8.14;65.19;99387.13;5018191;28;20433;-60
2021/10/14 07:39:21;;;;;;;3.50;1.20;;;;;;;8.19;64.49;99389.34;5032663;28;20104;-60
2021/10/14 07:41:46;;;;;;;3.60;1.45;;;;;;;8.06;64.69;99376.47;5032287;28;20026;-59
2021/10/14 07:44:13;;;;;;;3.58;1.40;;;;;;;8.13;64.92;99380.28;5031659;28;20036;-60
2021/10/14 07:46:39;;;;;;;4.75;1.50;;;;;;;7.93;64.50;99340.25;5021548;28;20072;-60
2021/10/14 07:49:05;;;;;;;4.38;1.85;;;;;;;8.26;64.41;99387.97;5025438;28;20037;-59
2021/10/14 07:51:31;;;;;;;6.20;1.95;;;;;;;8.31;64.76;99390.25;5006835;28;20172;-60
2021/10/14 07:53:56;;;;;;;5.30;1.42;;;;;;;8.23;63.59;99391.63;5032050;28;20071;-59
2021/10/14 07:56:22;;;;;;;5.38;1.63;;;;;;;8.20;64.22;99394.44;5027632;28;20163;-59
2021/10/14 07:58:49;;;;;;;3.95;1.52;;;;;;;8.22;64.11;99397.75;5025602;28;20064;-60
2021/10/14 08:01:14;;;;;;;4.85;1.60;;;;;;;8.25;63.61;99397.53;5029382;28;20018;-59
2021/10/14 08:03:40;;;;;;;3.63;1.38;;;;;;;8.38;65.58;99397.47;5022271;28;20028;-59
2021/10/14 08:06:05;;;;;;;4.85;1.77;;;;;;;8.07;63.61;99362.59;5022534;28;20404;-59
2021/10/14 08:08:31;;;;;;;4.28;1.70;;;;;;;8.31;63.73;99396.25;5024887;28;20484;-60
2021/10/14 08:10:56;;;;;;;4.20;1.50;;;;;;;8.40;63.96;99395.59;5040893;28;20026;-59
2021/10/14 08:13:22;;;;;;;4.78;1.90;;;;;;;8.40;63.96;99393.00;5019027;28;20143;-59
2021/10/14 08:15:52;;;;;;;3.80;1.50;;;;;;;8.41;64.04;99388.63;5027494;28;20033;-60
2021/10/14 08:18:19;;;;;;;4.45;1.75;;;;;;;8.33;62.72;99375.41;5023701;28;20920;-60
2021/10/14 08:20:44;;;;;;;4.65;1.70;;;;;;;8.46;62.92;99384.78;5024691;28;20030;-60
2021/10/14 08:23:10;;;;;;;4.57;1.48;;;;;;;8.33;63.78;99352.91;5031097;28;20544;-59
2021/10/14 08:25:35;;;;;;;4.93;1.88;;;;;;;8.59;64.80;99384.72;5015658;28;20069;-60
2021/10/14 08:28:01;;;;;;;4.32;1.50;;;;;;;8.68;63.40;99382.41;5033897;28;20108;-59
2021/10/14 08:30:26;;;;;;;4.15;1.60;;;;;;;8.73;64.87;99380.31;5017410;28;20029;-59
2021/10/14 08:32:52;;;;;;;5.00;1.60;;;;;;;8.65;65.79;99383.44;5035690;28;20100;-60
2021/10/14 08:35:19;;;;;;;5.32;1.40;;;;;;;8.23;61.99;99326.88;5020497;28;20037;-60
2021/10/14 08:37:44;;;;;;;4.90;2.10;;;;;;;8.50;62.86;99385.41;5027405;28;20025;-60
2021/10/14 08:40:10;;;;;;;5.88;2.47;;;;;;;8.63;61.60;99382.72;5005314;28;20365;-60
2021/10/14 08:42:36;;;;;;;4.40;1.75;;;;;;;8.51;61.78;99378.47;5031245;28;20064;-60
2021/10/14 08:45:07;;;;;;;4.68;1.80;;;;;;;8.45;62.56;99385.75;5031599;28;20041;-59
2021/10/14 08:47:33;;;;;;;5.05;1.60;;;;;;;8.53;62.59;99374.00;5007139;28;20033;-60
2021/10/14 08:49:59;;;;;;;3.72;1.48;;;;;;;8.58;61.81;99377.91;5031665;28;20025;-59
2021/10/14 08:52:25;;;;;;;6.00;1.70;;;;;;;8.60;62.96;99364.81;5023832;28;20084;-60
2021/10/14 08:54:50;;;;;;;4.45;1.48;;;;;;;8.70;61.75;99388.28;5018616;28;20993;-60
2021/10/14 08:57:15;;;;;;;3.80;1.30;;;;;;;8.66;60.56;99385.09;5016186;28;20314;-60
2021/10/14 08:59:41;;;;;;;4.32;1.60;;;;;;;8.61;59.80;99364.69;5033680;28;20516;-61
2021/10/14 09:02:15;;;;;;;3.83;1.30;;;;;;;8.83;61.42;99386.44;5019925;28;20025;-60
2021/10/14 09:04:47;;;;;;;5.18;1.40;;;;;;;8.89;62.27;99372.19;5026126;28;20100;-60
2021/10/14 09:07:15;;;;;;;3.42;1.13;;;;;;;8.95;62.83;99374.31;5024730;28;20040;-60
2021/10/14 09:09:42;;;;;;;4.25;1.40;;;;;;;8.76;63.03;99343.75;5030595;28;20029;-60
2021/10/14 09:12:09;;;;;;;3.95;1.40;;;;;;;9.00;63.56;99372.22;5017255;28;20037;-61
2021/10/14 09:14:57;;;;;;;3.85;1.23;;;;;;;8.71;62.11;99328.56;5005042;28;20048;-60
2021/10/14 09:17:49;;;;;;;4.45;1.40;;;;;;;8.71;62.03;99317.38;5015857;28;20037;-60
2021/10/14 09:20:20;;;;;;;4.75;1.30;;;;;;;8.98;58.84;99369.75;5021941;28;20037;-60
2021/10/14 09:23:07;;;;;;;3.20;1.10;;;;;;;9.07;58.69;99372.56;5016746;28;20033;-60
2021/10/14 09:25:41;;;;;;;4.07;1.58;;;;;;;9.08;56.58;99358.66;5020321;28;20028;-60
2021/10/14 09:28:21;;;;;;;6.88;1.80;;;;;;;9.13;57.03;99367.75;5012041;28;20079;-60
2021/10/14 09:31:07;;;;;;;7.25;1.42;;;;;;;9.11;55.89;99367.03;5015966;28;20045;-60
2021/10/14 09:33:38;;;;;;;5.35;1.58;;;;;;;9.14;56.57;99377.16;5013539;28;20041;-60
2021/10/14 09:36:23;;;;;;;3.90;1.25;;;;;;;9.26;54.11;99369.41;5005628;28;20498;-60
2021/10/14 09:38:51;;;;;;;5.28;1.45;;;;;;;9.32;54.22;99364.56;5011069;28;20029;-61
2021/10/14 09:41:19;;;;;;;3.53;1.10;;;;;;;9.15;53.33;99307.97;5015932;28;20021;-60
2021/10/14 09:43:48;;;;;;;3.85;1.40;;;;;;;9.59;54.11;99353.78;5024523;28;20515;-60
2021/10/14 09:46:32;;;;;;;4.40;1.27;;;;;;;9.68;53.75;99357.44;5010991;28;20040;-60
2021/10/14 09:48:57;;;;;;;4.18;1.35;;;;;;;9.85;55.21;99358.72;5024163;28;20032;-60
2021/10/14 09:51:22;;;;;;;4.97;1.60;;;;;;;9.87;55.38;99338.63;5029318;28;20023;-60
2021/10/14 09:53:48;;;;;;;4.50;1.58;;;;;;;10.19;50.22;99345.63;5034204;28;20372;-60
2021/10/14 09:56:13;;;;;;;4.55;1.42;;;;;;;10.20;54.27;99324.72;5030696;28;20024;-60
2021/10/14 09:58:39;;;;;;;6.57;1.77;;;;;;;10.22;56.40;99306.38;5021045;28;20112;-60
2021/10/14 10:01:05;;;;;;;5.22;1.40;;;;;;;10.69;57.05;99332.03;5031805;28;20024;-60
2021/10/14 10:03:31;;;;;;;4.47;1.23;;;;;;;10.78;57.90;99318.25;5015839;28;20081;-60
2021/10/14 10:06:01;;;;;;;5.40;1.55;;;;;;;10.84;56.83;99283.09;5008995;28;20034;-60
2021/10/14 10:08:32;;;;;;;4.63;1.27;;;;;;;11.35;56.20;99322.09;5006656;28;20264;-60
2021/10/14 10:11:00;;;;;;;4.93;1.30;;;;;;;11.14;55.35;99279.69;5014580;28;20731;-60
2021/10/14 10:13:26;;;;;;;4.20;1.20;;;;;;;11.56;56.03;99320.38;5008725;28;20033;-60
2021/10/14 10:15:52;;;;;;;4.05;1.20;;;;;;;11.65;53.26;99322.16;5012470;28;20086;-60
2021/10/14 10:18:26;;;;;;;3.85;1.17;;;;;;;11.64;53.22;99316.13;5015486;28;20144;-60
2021/10/14 10:21:02;;;;;;;5.53;1.30;;;;;;;11.67;52.90;99307.22;5021483;28;20391;-61
2021/10/14 10:23:42;;;;;;;3.92;1.20;;;;;;;11.79;54.48;99305.31;5019602;28;20030;-61
2021/10/14 10:26:33;;;;;;;4.10;1.50;;;;;;;12.07;52.87;99314.97;5019102;28;20031;-60
2021/10/14 10:29:21;;;;;;;5.22;1.60;;;;;;;12.03;52.47;99313.59;5012245;28;20068;-61
2021/10/14 10:31:50;;;;;;;6.00;1.48;;;;;;;12.01;52.37;99315.53;5030749;28;20040;-60
2021/10/14 10:34:31;;;;;;;6.82;1.58;;;;;;;11.82;51.61;99279.00;5021022;28;20053;-60
2021/10/14 10:37:42;;;;;;;5.18;1.58;;;;;;;11.73;50.67;99263.19;5018203;28;20426;-60
2021/10/14 10:40:36;;;;;;;3.95;1.42;;;;;;;12.13;50.66;99303.16;5014601;28;20495;-61
2021/10/14 10:43:03;;;;;;;5.07;1.60;;;;;;;11.96;50.66;99265.59;5007126;28;20052;-60
2021/10/14 10:45:41;;;;;;;6.93;1.40;;;;;;;12.35;49.59;99306.44;5014607;28;20610;-60
2021/10/14 10:48:07;;;;;;;5.18;1.75;;;;;;;12.34;49.01;99308.25;5028130;28;20629;-60
2021/10/14 10:50:32;;;;;;;4.40;1.80;;;;;;;12.37;49.41;99296.69;5023922;28;20034;-60
2021/10/14 10:53:04;;;;;;;4.88;1.58;;;;;;;12.34;49.57;99287.38;5025711;28;20375;-60
2021/10/14 10:55:51;;;;;;;5.13;1.80;;;;;;;12.39;49.73;99276.50;5012886;28;20024;-60
2021/10/14 10:58:44;;;;;;;6.50;2.20;;;;;;;12.47;49.30;99285.28;5031557;28;20075;-60
2021/10/14 11:01:11;;;;;;;7.50;2.00;;;;;;;12.52;49.77;99266.59;5021735;28;20045;-60
2021/10/14 11:03:37;;;;;;;6.20;2.20;;;;;;;12.59;50.72;99282.50;5023869;28;20026;-60
2021/10/14 11:06:12;;;;;;;5.40;2.05;;;;;;;12.59;50.25;99280.72;5028745;28;20037;-59
2021/10/14 11:08:38;;;;;;;5.35;2.38;;;;;;;12.70;50.86;99284.94;5023055;28;20036;-59
2021/10/14 11:11:07;;;;;;;5.70;2.40;;;;;;;12.66;51.27;99278.38;5037511;28;20395;-60
2021/10/14 11:13:34;;;;;;;5.38;2.47;;;;;;;12.72;50.70;99282.19;5025071;28;20528;-60
2021/10/14 11:16:01;;;;;;;5.10;2.15;;;;;;;12.74;49.78;99265.47;5024009;28;20030;-60
2021/10/14 11:18:27;;;;;;;6.32;2.60;;;;;;;12.52;50.13;99232.69;5020120;28;20248;-60
2021/10/14 11:20:59;;;;;;;7.57;2.53;;;;;;;12.92;50.73;99269.91;5024809;28;20082;-60
2021/10/14 11:23:27;;;;;;;8.05;2.53;;;;;;;12.95;50.02;99257.41;5026788;28;20030;-59
2021/10/14 11:26:01;;;;;;;6.40;2.53;;;;;;;12.95;49.61;99256.59;5025352;28;20507;-60
2021/10/14 11:28:27;;;;;;;6.88;2.58;;;;;;;12.94;49.53;99253.16;5030822;28;20030;-59
2021/10/14 11:30:56;;;;;;;7.70;3.00;;;;;;;13.01;50.51;99253.38;5023758;28;20075;-60
2021/10/14 11:33:30;;;;;;;6.53;3.08;;;;;;;12.79;49.59;99211.03;5027185;28;20099;-60
2021/10/14 11:35:57;;;;;;;6.10;2.92;;;;;;;13.01;49.28;99240.34;5021679;28;20021;-60
2021/10/14 11:38:23;;;;;;;6.45;2.67;;;;;;;13.16;50.01;99225.84;5030402;28;20039;-60